Řízení letového provozu České republiky  
Aktualizace dat:  27.02.2017 11:04:20 UTC English version
   METEO Zobrazení stránky:  27.02.2017 11:06:22 UTC  
vysvětlivky
METAR EDDB 271050Z 22014KT 9999 BKN040 12/03 Q1006 TEMPO 20015G25KT=
METAR EDDC 271050Z 22011KT 9999 FEW037 11/02 Q1007 NOSIG=
METAR EDDE 271050Z 21017KT 190V250 9999 SCT033 12/03 Q1005 TEMPO 21015G25KT=
METAR EDDF 271050Z 18013KT 150V220 9999 FEW038 13/03 Q1005 BECMG 20015G25KT=
METAR EDDM 271050Z VRB02KT CAVOK 08/M00 Q1009 NOSIG=
METAR EDDN 271050Z 15006KT 120V200 9999 FEW040 11/M00 Q1008 NOSIG=
METAR EDDP 271050Z 21016KT 9999 BKN036 13/04 Q1006 TEMPO 19015G25KT=
METAR EDDT 271050Z 21011KT 160V240 9999 SCT040 SCT300 13/03 Q1005 NOSIG=
METAR EDQM 271050Z 21015KT 9999 BKN033 08/00 Q1007=
METAR EPBY 271100Z 21007KT 170V230 CAVOK 11/02 Q1008 =
METAR EPGD 271100Z 20011KT CAVOK 09/04 Q1007 =
METAR EPKK 271100Z VRB02KT CAVOK 14/M05 Q1012 =
METAR EPKT 271100Z 22014KT CAVOK 12/M06 Q1011 =
METAR EPLL 271100Z 18008KT 130V220 CAVOK 12/00 Q1011 =
METAR EPPO 271100Z 22009KT 9999 FEW043 13/02 Q1008 =
METAR EPRZ 271100Z 21014KT 180V240 CAVOK 11/M03 Q1014 =
METAR EPWA 271100Z 19007KT CAVOK 10/01 Q1012 NOSIG=
METAR EPWR 271100Z 18008KT 150V220 CAVOK 13/M01 Q1010 =
METAR LHBP 271100Z 11008KT CAVOK 12/01 Q1017 NOSIG=
METAR LHSM 271045Z 17011KT CAVOK 11/04 Q1015 NOSIG=
METAR LKCV 271000Z 13009KT CAVOK 10/M01 Q1011 NOSIG=
METAR LKKB 271000Z 17005KT 130V210 CAVOK 10/M02 Q1010 NOSIG =
METAR LKKU 271100Z 15008KT CAVOK 12/M04 Q1013 RMK REG QNH 1004=
METAR LKKV 271100Z VRB06KT 9999 FEW033 10/02 Q1007=
METAR LKLN 271000Z AUTO VRB02KT CAVOK 08/M00 Q1010=
METAR LKMT 271100Z 24015KT CAVOK 12/M01 Q1012 NOSIG=
METAR LKNA 271000Z 13007KT CAVOK 05/M01 Q1012 NOSIG=
METAR LKPD 271000Z 07005KT CAVOK 10/M03 Q1011 NOSIG =
METAR LKPR 271100Z 14005KT CAVOK 11/M01 Q1009 NOSIG=
METAR LKTB 271100Z 14009KT CAVOK 09/01 Q1012 NOSIG=
METAR LKVO 271100Z 12007KT 090V150 CAVOK 11/01 Q1009=
METAR LOWI 271050Z 26008KT 9999 FEW070 SCT150 11/M01 Q1009 R08/19//95 NOSIG=
METAR LOWL 271050Z VRB03KT 9999 FEW080 SCT140 BKN230 09/01 Q1009 NOSIG=
METAR LOWS 271050Z 32003KT 280V350 9999 FEW100 BKN110 11/M00 Q1009 NOSIG=
METAR LOWW 271050Z 11010KT CAVOK 07/02 Q1012 NOSIG=
METAR LZIB 271100Z 08008KT 040V110 CAVOK 09/01 Q1014 NOSIG=
METAR LZKZ 271100Z 19008KT CAVOK 10/M01 Q1017 NOSIG=
METAR LZPP 271100Z 13008KT CAVOK 10/M00 Q1014=
METAR LZSL 271100Z VRB01KT CAVOK 10/M02 Q1016=
METAR LZTT 271100Z 09003KT 020V150 CAVOK 08/M04 Q1014 NOSIG=
METAR LZZI 271100Z VRB01KT CAVOK 09/M03 Q1014=